sensor_id;sensor_type;location;lat;lon;timestamp;P1;durP1;ratioP1;P2;durP2;ratioP2
65279;SDS011;51878;55.748;48.742;2022-07-26T00:00:06;11.23;;;7.65;;
65279;SDS011;51878;55.748;48.742;2022-07-26T00:02:35;10.63;;;8.10;;
65279;SDS011;51878;55.748;48.742;2022-07-26T00:05:03;9.75;;;8.10;;
65279;SDS011;51878;55.748;48.742;2022-07-26T00:07:31;10.73;;;7.68;;
65279;SDS011;51878;55.748;48.742;2022-07-26T00:10:03;9.73;;;8.40;;
65279;SDS011;51878;55.748;48.742;2022-07-26T00:12:37;11.13;;;7.88;;
65279;SDS011;51878;55.748;48.742;2022-07-26T00:15:05;16.15;;;8.93;;
65279;SDS011;51878;55.748;48.742;2022-07-26T00:17:35;10.50;;;8.27;;
65279;SDS011;51878;55.748;48.742;2022-07-26T00:20:03;10.80;;;8.98;;
65279;SDS011;51878;55.748;48.742;2022-07-26T00:22:31;14.80;;;9.02;;
65279;SDS011;51878;55.748;48.742;2022-07-26T00:25:02;19.30;;;8.68;;
65279;SDS011;51878;55.748;48.742;2022-07-26T00:27:30;11.02;;;8.38;;
65279;SDS011;51878;55.748;48.742;2022-07-26T00:29:57;12.38;;;8.32;;
65279;SDS011;51878;55.748;48.742;2022-07-26T00:32:25;10.57;;;8.98;;
65279;SDS011;51878;55.748;48.742;2022-07-26T00:34:52;16.77;;;8.82;;
65279;SDS011;51878;55.748;48.742;2022-07-26T00:37:20;11.35;;;9.48;;
65279;SDS011;51878;55.748;48.742;2022-07-26T00:39:47;14.30;;;9.43;;
65279;SDS011;51878;55.748;48.742;2022-07-26T00:42:15;18.70;;;9.57;;
65279;SDS011;51878;55.748;48.742;2022-07-26T00:44:43;10.40;;;9.30;;
65279;SDS011;51878;55.748;48.742;2022-07-26T00:47:11;14.93;;;9.82;;
65279;SDS011;51878;55.748;48.742;2022-07-26T00:49:39;13.50;;;12.10;;
65279;SDS011;51878;55.748;48.742;2022-07-26T00:52:08;14.32;;;12.60;;
65279;SDS011;51878;55.748;48.742;2022-07-26T00:54:36;12.80;;;11.27;;
65279;SDS011;51878;55.748;48.742;2022-07-26T00:57:05;16.88;;;14.23;;
65279;SDS011;51878;55.748;48.742;2022-07-26T00:59:32;22.98;;;16.17;;
65279;SDS011;51878;55.748;48.742;2022-07-26T01:02:00;26.10;;;18.10;;
65279;SDS011;51878;55.748;48.742;2022-07-26T01:04:29;16.90;;;15.18;;
65279;SDS011;51878;55.748;48.742;2022-07-26T01:06:56;21.13;;;15.82;;
65279;SDS011;51878;55.748;48.742;2022-07-26T01:09:23;30.25;;;16.45;;
65279;SDS011;51878;55.748;48.742;2022-07-26T01:11:50;19.83;;;16.15;;
65279;SDS011;51878;55.748;48.742;2022-07-26T01:14:21;21.65;;;14.88;;
65279;SDS011;51878;55.748;48.742;2022-07-26T01:16:49;20.75;;;17.58;;
65279;SDS011;51878;55.748;48.742;2022-07-26T01:19:17;25.88;;;20.02;;
65279;SDS011;51878;55.748;48.742;2022-07-26T01:21:45;24.98;;;17.33;;
65279;SDS011;51878;55.748;48.742;2022-07-26T01:24:12;26.48;;;16.88;;
65279;SDS011;51878;55.748;48.742;2022-07-26T01:26:39;31.67;;;16.33;;
65279;SDS011;51878;55.748;48.742;2022-07-26T01:29:07;35.05;;;16.90;;
65279;SDS011;51878;55.748;48.742;2022-07-26T01:31:34;18.50;;;15.55;;
65279;SDS011;51878;55.748;48.742;2022-07-26T01:34:01;17.92;;;13.68;;
65279;SDS011;51878;55.748;48.742;2022-07-26T01:36:29;16.40;;;12.98;;
65279;SDS011;51878;55.748;48.742;2022-07-26T01:38:56;15.38;;;13.30;;
65279;SDS011;51878;55.748;48.742;2022-07-26T01:41:23;13.82;;;12.45;;
65279;SDS011;51878;55.748;48.742;2022-07-26T01:43:59;18.10;;;12.38;;
65279;SDS011;51878;55.748;48.742;2022-07-26T01:46:26;13.85;;;11.32;;
65279;SDS011;51878;55.748;48.742;2022-07-26T01:48:53;14.52;;;11.02;;
65279;SDS011;51878;55.748;48.742;2022-07-26T01:51:21;14.15;;;10.63;;
65279;SDS011;51878;55.748;48.742;2022-07-26T01:53:48;14.57;;;9.88;;
65279;SDS011;51878;55.748;48.742;2022-07-26T01:56:15;13.68;;;9.27;;
65279;SDS011;51878;55.748;48.742;2022-07-26T01:58:42;10.43;;;9.38;;
65279;SDS011;51878;55.748;48.742;2022-07-26T02:01:10;13.00;;;9.23;;
65279;SDS011;51878;55.748;48.742;2022-07-26T02:03:37;16.63;;;8.77;;
65279;SDS011;51878;55.748;48.742;2022-07-26T02:06:04;11.73;;;9.10;;
65279;SDS011;51878;55.748;48.742;2022-07-26T02:08:31;15.82;;;9.70;;
65279;SDS011;51878;55.748;48.742;2022-07-26T02:10:58;12.98;;;8.85;;
65279;SDS011;51878;55.748;48.742;2022-07-26T02:13:39;14.25;;;10.15;;
65279;SDS011;51878;55.748;48.742;2022-07-26T02:16:10;12.68;;;9.45;;
65279;SDS011;51878;55.748;48.742;2022-07-26T02:18:39;11.18;;;9.48;;
65279;SDS011;51878;55.748;48.742;2022-07-26T02:21:08;10.73;;;9.38;;
65279;SDS011;51878;55.748;48.742;2022-07-26T02:23:35;13.60;;;9.77;;
65279;SDS011;51878;55.748;48.742;2022-07-26T02:26:06;15.00;;;10.40;;
65279;SDS011;51878;55.748;48.742;2022-07-26T02:28:33;11.65;;;9.43;;
65279;SDS011;51878;55.748;48.742;2022-07-26T02:31:00;23.67;;;8.98;;
65279;SDS011;51878;55.748;48.742;2022-07-26T02:33:27;12.55;;;9.52;;
65279;SDS011;51878;55.748;48.742;2022-07-26T02:35:54;13.80;;;9.20;;
65279;SDS011;51878;55.748;48.742;2022-07-26T02:38:21;12.75;;;9.30;;
65279;SDS011;51878;55.748;48.742;2022-07-26T02:40:49;10.00;;;9.00;;
65279;SDS011;51878;55.748;48.742;2022-07-26T02:43:18;13.25;;;8.93;;
65279;SDS011;51878;55.748;48.742;2022-07-26T02:45:45;12.25;;;8.88;;
65279;SDS011;51878;55.748;48.742;2022-07-26T02:48:26;21.10;;;9.27;;
65279;SDS011;51878;55.748;48.742;2022-07-26T02:50:53;10.57;;;9.25;;
65279;SDS011;51878;55.748;48.742;2022-07-26T02:53:21;12.80;;;9.32;;
65279;SDS011;51878;55.748;48.742;2022-07-26T02:55:48;10.95;;;8.88;;
65279;SDS011;51878;55.748;48.742;2022-07-26T02:58:15;13.98;;;9.60;;
65279;SDS011;51878;55.748;48.742;2022-07-26T03:00:42;12.00;;;9.98;;
65279;SDS011;51878;55.748;48.742;2022-07-26T03:03:09;9.95;;;8.95;;
65279;SDS011;51878;55.748;48.742;2022-07-26T03:05:39;13.52;;;9.13;;
65279;SDS011;51878;55.748;48.742;2022-07-26T03:08:07;14.82;;;9.05;;
65279;SDS011;51878;55.748;48.742;2022-07-26T03:10:34;12.68;;;8.82;;
65279;SDS011;51878;55.748;48.742;2022-07-26T03:13:01;14.30;;;9.20;;
65279;SDS011;51878;55.748;48.742;2022-07-26T03:15:28;13.88;;;9.15;;
65279;SDS011;51878;55.748;48.742;2022-07-26T03:17:55;10.63;;;9.55;;
65279;SDS011;51878;55.748;48.742;2022-07-26T03:20:23;11.65;;;9.15;;
65279;SDS011;51878;55.748;48.742;2022-07-26T03:22:50;12.75;;;9.43;;
65279;SDS011;51878;55.748;48.742;2022-07-26T03:25:17;10.30;;;9.18;;
65279;SDS011;51878;55.748;48.742;2022-07-26T03:27:45;14.57;;;9.27;;
65279;SDS011;51878;55.748;48.742;2022-07-26T03:30:12;14.18;;;9.55;;
65279;SDS011;51878;55.748;48.742;2022-07-26T03:32:39;19.75;;;10.20;;
65279;SDS011;51878;55.748;48.742;2022-07-26T03:35:07;16.20;;;9.48;;
65279;SDS011;51878;55.748;48.742;2022-07-26T03:37:34;11.80;;;9.15;;
65279;SDS011;51878;55.748;48.742;2022-07-26T03:40:10;13.30;;;9.00;;
65279;SDS011;51878;55.748;48.742;2022-07-26T03:42:38;11.05;;;9.88;;
65279;SDS011;51878;55.748;48.742;2022-07-26T03:45:05;19.00;;;9.82;;
65279;SDS011;51878;55.748;48.742;2022-07-26T03:47:33;14.80;;;9.45;;
65279;SDS011;51878;55.748;48.742;2022-07-26T03:50:00;16.88;;;9.48;;
65279;SDS011;51878;55.748;48.742;2022-07-26T03:52:29;14.75;;;8.52;;
65279;SDS011;51878;55.748;48.742;2022-07-26T03:54:56;12.10;;;8.52;;
65279;SDS011;51878;55.748;48.742;2022-07-26T03:57:23;12.95;;;8.27;;
65279;SDS011;51878;55.748;48.742;2022-07-26T03:59:51;10.30;;;7.82;;
65279;SDS011;51878;55.748;48.742;2022-07-26T04:02:18;18.00;;;8.05;;
65279;SDS011;51878;55.748;48.742;2022-07-26T04:04:45;10.70;;;7.60;;
65279;SDS011;51878;55.748;48.742;2022-07-26T04:07:12;14.07;;;7.75;;
65279;SDS011;51878;55.748;48.742;2022-07-26T04:09:39;12.43;;;8.70;;
65279;SDS011;51878;55.748;48.742;2022-07-26T04:12:06;9.30;;;7.50;;
65279;SDS011;51878;55.748;48.742;2022-07-26T04:14:33;14.32;;;6.97;;
65279;SDS011;51878;55.748;48.742;2022-07-26T04:17:01;14.68;;;7.18;;
65279;SDS011;51878;55.748;48.742;2022-07-26T04:19:28;12.82;;;7.47;;
65279;SDS011;51878;55.748;48.742;2022-07-26T04:21:55;12.15;;;7.15;;
65279;SDS011;51878;55.748;48.742;2022-07-26T04:24:22;18.63;;;11.43;;
65279;SDS011;51878;55.748;48.742;2022-07-26T04:26:50;17.95;;;6.95;;
65279;SDS011;51878;55.748;48.742;2022-07-26T04:29:18;16.50;;;12.60;;
65279;SDS011;51878;55.748;48.742;2022-07-26T04:31:45;10.27;;;8.45;;
65279;SDS011;51878;55.748;48.742;2022-07-26T04:34:12;13.40;;;7.75;;
65279;SDS011;51878;55.748;48.742;2022-07-26T04:36:39;12.55;;;6.90;;
65279;SDS011;51878;55.748;48.742;2022-07-26T04:39:06;11.45;;;7.55;;
65279;SDS011;51878;55.748;48.742;2022-07-26T04:41:33;9.95;;;7.22;;
65279;SDS011;51878;55.748;48.742;2022-07-26T04:44:01;17.00;;;10.80;;
65279;SDS011;51878;55.748;48.742;2022-07-26T04:46:28;10.77;;;7.03;;
65279;SDS011;51878;55.748;48.742;2022-07-26T04:48:55;10.02;;;7.13;;
65279;SDS011;51878;55.748;48.742;2022-07-26T04:51:22;11.15;;;7.03;;
65279;SDS011;51878;55.748;48.742;2022-07-26T04:53:51;11.80;;;7.07;;
65279;SDS011;51878;55.748;48.742;2022-07-26T04:56:18;14.68;;;7.30;;
65279;SDS011;51878;55.748;48.742;2022-07-26T04:58:45;15.40;;;6.80;;
65279;SDS011;51878;55.748;48.742;2022-07-26T05:01:12;17.92;;;6.60;;
65279;SDS011;51878;55.748;48.742;2022-07-26T05:03:39;12.40;;;6.10;;
65279;SDS011;51878;55.748;48.742;2022-07-26T05:06:07;12.65;;;6.82;;
65279;SDS011;51878;55.748;48.742;2022-07-26T05:08:35;15.55;;;7.38;;
65279;SDS011;51878;55.748;48.742;2022-07-26T05:11:02;10.18;;;6.45;;
65279;SDS011;51878;55.748;48.742;2022-07-26T05:13:29;9.45;;;6.88;;
65279;SDS011;51878;55.748;48.742;2022-07-26T05:15:57;15.20;;;6.40;;
65279;SDS011;51878;55.748;48.742;2022-07-26T05:18:25;9.45;;;6.82;;
65279;SDS011;51878;55.748;48.742;2022-07-26T05:21:35;11.98;;;6.80;;
65279;SDS011;51878;55.748;48.742;2022-07-26T05:24:03;18.58;;;7.32;;
65279;SDS011;51878;55.748;48.742;2022-07-26T05:26:30;9.68;;;6.32;;
65279;SDS011;51878;55.748;48.742;2022-07-26T05:28:57;8.93;;;6.72;;
65279;SDS011;51878;55.748;48.742;2022-07-26T05:31:24;13.38;;;6.78;;
65279;SDS011;51878;55.748;48.742;2022-07-26T05:33:52;9.05;;;6.25;;
65279;SDS011;51878;55.748;48.742;2022-07-26T05:36:20;11.02;;;6.90;;
65279;SDS011;51878;55.748;48.742;2022-07-26T05:38:48;15.07;;;7.13;;
65279;SDS011;51878;55.748;48.742;2022-07-26T05:41:15;9.38;;;7.00;;
65279;SDS011;51878;55.748;48.742;2022-07-26T05:43:42;9.48;;;6.38;;
65279;SDS011;51878;55.748;48.742;2022-07-26T05:46:10;11.75;;;7.00;;
65279;SDS011;51878;55.748;48.742;2022-07-26T05:48:38;9.02;;;7.22;;
65279;SDS011;51878;55.748;48.742;2022-07-26T05:51:05;10.45;;;7.05;;
65279;SDS011;51878;55.748;48.742;2022-07-26T05:53:33;10.88;;;6.22;;
65279;SDS011;51878;55.748;48.742;2022-07-26T05:56:00;15.52;;;7.40;;
65279;SDS011;51878;55.748;48.742;2022-07-26T05:58:27;10.00;;;7.07;;
65279;SDS011;51878;55.748;48.742;2022-07-26T06:00:54;15.65;;;7.57;;
65279;SDS011;51878;55.748;48.742;2022-07-26T06:03:22;15.50;;;7.10;;
65279;SDS011;51878;55.748;48.742;2022-07-26T06:05:53;13.00;;;6.90;;
65279;SDS011;51878;55.748;48.742;2022-07-26T06:08:23;16.75;;;7.40;;
65279;SDS011;51878;55.748;48.742;2022-07-26T06:10:51;9.70;;;7.35;;
65279;SDS011;51878;55.748;48.742;2022-07-26T06:13:19;10.13;;;7.35;;
65279;SDS011;51878;55.748;48.742;2022-07-26T06:15:46;18.30;;;7.38;;
65279;SDS011;51878;55.748;48.742;2022-07-26T06:18:13;10.45;;;7.05;;
65279;SDS011;51878;55.748;48.742;2022-07-26T06:20:42;11.15;;;6.85;;
65279;SDS011;51878;55.748;48.742;2022-07-26T06:23:10;12.45;;;6.97;;
65279;SDS011;51878;55.748;48.742;2022-07-26T06:25:38;9.63;;;6.53;;
65279;SDS011;51878;55.748;48.742;2022-07-26T06:28:06;10.70;;;6.38;;
65279;SDS011;51878;55.748;48.742;2022-07-26T06:30:35;10.88;;;5.75;;
65279;SDS011;51878;55.748;48.742;2022-07-26T06:33:03;15.85;;;6.05;;
65279;SDS011;51878;55.748;48.742;2022-07-26T06:35:31;9.93;;;5.80;;
65279;SDS011;51878;55.748;48.742;2022-07-26T06:38:01;10.93;;;5.00;;
65279;SDS011;51878;55.748;48.742;2022-07-26T06:40:47;12.38;;;6.10;;
65279;SDS011;51878;55.748;48.742;2022-07-26T06:43:14;10.75;;;6.25;;
65279;SDS011;51878;55.748;48.742;2022-07-26T06:45:41;12.38;;;5.82;;
65279;SDS011;51878;55.748;48.742;2022-07-26T06:48:08;11.07;;;6.00;;
65279;SDS011;51878;55.748;48.742;2022-07-26T06:50:35;10.63;;;7.07;;
65279;SDS011;51878;55.748;48.742;2022-07-26T06:53:02;10.18;;;6.60;;
65279;SDS011;51878;55.748;48.742;2022-07-26T06:55:29;10.93;;;6.53;;
65279;SDS011;51878;55.748;48.742;2022-07-26T06:57:56;12.32;;;6.50;;
65279;SDS011;51878;55.748;48.742;2022-07-26T07:00:24;15.45;;;6.97;;
65279;SDS011;51878;55.748;48.742;2022-07-26T07:02:51;13.55;;;7.30;;
65279;SDS011;51878;55.748;48.742;2022-07-26T07:05:18;9.05;;;6.55;;
65279;SDS011;51878;55.748;48.742;2022-07-26T07:07:45;13.27;;;6.93;;
65279;SDS011;51878;55.748;48.742;2022-07-26T07:10:13;12.40;;;6.93;;
65279;SDS011;51878;55.748;48.742;2022-07-26T07:12:40;12.73;;;6.90;;
65279;SDS011;51878;55.748;48.742;2022-07-26T07:15:10;8.10;;;6.28;;
65279;SDS011;51878;55.748;48.742;2022-07-26T07:17:38;10.52;;;7.00;;
65279;SDS011;51878;55.748;48.742;2022-07-26T07:20:05;11.70;;;6.47;;
65279;SDS011;51878;55.748;48.742;2022-07-26T07:22:32;15.63;;;7.72;;
65279;SDS011;51878;55.748;48.742;2022-07-26T07:24:59;14.65;;;7.43;;
65279;SDS011;51878;55.748;48.742;2022-07-26T07:27:29;13.48;;;6.88;;
65279;SDS011;51878;55.748;48.742;2022-07-26T07:29:56;18.88;;;7.40;;
65279;SDS011;51878;55.748;48.742;2022-07-26T07:32:23;21.83;;;7.32;;
65279;SDS011;51878;55.748;48.742;2022-07-26T07:34:50;17.30;;;7.50;;
65279;SDS011;51878;55.748;48.742;2022-07-26T07:37:17;19.00;;;7.65;;
65279;SDS011;51878;55.748;48.742;2022-07-26T07:39:45;25.20;;;7.47;;
65279;SDS011;51878;55.748;48.742;2022-07-26T07:42:14;13.52;;;6.90;;
65279;SDS011;51878;55.748;48.742;2022-07-26T07:44:42;11.55;;;6.88;;
65279;SDS011;51878;55.748;48.742;2022-07-26T07:47:09;22.52;;;7.47;;
65279;SDS011;51878;55.748;48.742;2022-07-26T07:49:36;15.55;;;7.18;;
65279;SDS011;51878;55.748;48.742;2022-07-26T07:52:03;12.55;;;6.53;;
65279;SDS011;51878;55.748;48.742;2022-07-26T07:54:31;14.82;;;6.72;;
65279;SDS011;51878;55.748;48.742;2022-07-26T07:56:58;14.45;;;6.75;;
65279;SDS011;51878;55.748;48.742;2022-07-26T07:59:25;22.48;;;7.53;;
65279;SDS011;51878;55.748;48.742;2022-07-26T08:01:53;20.50;;;7.13;;
65279;SDS011;51878;55.748;48.742;2022-07-26T08:04:20;21.92;;;6.57;;
65279;SDS011;51878;55.748;48.742;2022-07-26T08:06:47;13.10;;;6.00;;
65279;SDS011;51878;55.748;48.742;2022-07-26T08:09:15;13.57;;;5.97;;
65279;SDS011;51878;55.748;48.742;2022-07-26T08:11:42;21.67;;;6.55;;
65279;SDS011;51878;55.748;48.742;2022-07-26T08:14:09;14.05;;;6.28;;
65279;SDS011;51878;55.748;48.742;2022-07-26T08:16:37;16.90;;;5.93;;
65279;SDS011;51878;55.748;48.742;2022-07-26T08:19:05;14.23;;;6.50;;
65279;SDS011;51878;55.748;48.742;2022-07-26T08:21:32;19.17;;;6.55;;
65279;SDS011;51878;55.748;48.742;2022-07-26T08:23:59;9.80;;;6.20;;
65279;SDS011;51878;55.748;48.742;2022-07-26T08:26:26;13.55;;;6.43;;
65279;SDS011;51878;55.748;48.742;2022-07-26T08:28:54;15.52;;;6.22;;
65279;SDS011;51878;55.748;48.742;2022-07-26T08:31:23;15.20;;;6.40;;
65279;SDS011;51878;55.748;48.742;2022-07-26T08:33:51;14.10;;;5.97;;
65279;SDS011;51878;55.748;48.742;2022-07-26T08:36:18;13.40;;;6.20;;
65279;SDS011;51878;55.748;48.742;2022-07-26T08:38:45;12.25;;;5.65;;
65279;SDS011;51878;55.748;48.742;2022-07-26T08:41:12;11.88;;;6.20;;
65279;SDS011;51878;55.748;48.742;2022-07-26T08:43:39;16.75;;;5.90;;
65279;SDS011;51878;55.748;48.742;2022-07-26T08:46:14;15.43;;;5.63;;
65279;SDS011;51878;55.748;48.742;2022-07-26T08:48:41;9.57;;;5.53;;
65279;SDS011;51878;55.748;48.742;2022-07-26T08:51:09;13.82;;;5.90;;
65279;SDS011;51878;55.748;48.742;2022-07-26T08:53:36;14.50;;;6.20;;
65279;SDS011;51878;55.748;48.742;2022-07-26T08:56:04;9.98;;;6.05;;
65279;SDS011;51878;55.748;48.742;2022-07-26T08:58:33;12.27;;;6.22;;
65279;SDS011;51878;55.748;48.742;2022-07-26T09:01:05;14.10;;;6.47;;
65279;SDS011;51878;55.748;48.742;2022-07-26T09:06:11;13.25;;;6.28;;
65279;SDS011;51878;55.748;48.742;2022-07-26T09:08:40;8.65;;;5.78;;
65279;SDS011;51878;55.748;48.742;2022-07-26T09:11:24;8.43;;;5.90;;
65279;SDS011;51878;55.748;48.742;2022-07-26T09:13:58;10.55;;;6.13;;
65279;SDS011;51878;55.748;48.742;2022-07-26T09:16:30;10.38;;;5.85;;
65279;SDS011;51878;55.748;48.742;2022-07-26T09:19:13;13.48;;;5.53;;
65279;SDS011;51878;55.748;48.742;2022-07-26T09:21:41;9.02;;;5.80;;
65279;SDS011;51878;55.748;48.742;2022-07-26T09:24:08;9.05;;;6.00;;
65279;SDS011;51878;55.748;48.742;2022-07-26T09:26:36;7.32;;;5.13;;
65279;SDS011;51878;55.748;48.742;2022-07-26T09:29:05;8.43;;;5.30;;
65279;SDS011;51878;55.748;48.742;2022-07-26T09:34:05;9.75;;;5.70;;
65279;SDS011;51878;55.748;48.742;2022-07-26T09:36:36;10.18;;;5.93;;
65279;SDS011;51878;55.748;48.742;2022-07-26T09:39:16;11.05;;;5.38;;
65279;SDS011;51878;55.748;48.742;2022-07-26T09:41:48;6.20;;;5.20;;
65279;SDS011;51878;55.748;48.742;2022-07-26T09:44:35;8.73;;;5.82;;
65279;SDS011;51878;55.748;48.742;2022-07-26T09:47:13;7.13;;;5.38;;
65279;SDS011;51878;55.748;48.742;2022-07-26T09:49:41;13.80;;;5.97;;
65279;SDS011;51878;55.748;48.742;2022-07-26T09:52:19;7.57;;;5.50;;
65279;SDS011;51878;55.748;48.742;2022-07-26T09:54:47;10.77;;;6.07;;
65279;SDS011;51878;55.748;48.742;2022-07-26T09:57:16;7.95;;;6.43;;
65279;SDS011;51878;55.748;48.742;2022-07-26T09:59:45;10.05;;;6.25;;
65279;SDS011;51878;55.748;48.742;2022-07-26T10:02:12;8.40;;;5.97;;
65279;SDS011;51878;55.748;48.742;2022-07-26T10:04:40;9.35;;;6.30;;
65279;SDS011;51878;55.748;48.742;2022-07-26T10:07:08;9.65;;;6.97;;
65279;SDS011;51878;55.748;48.742;2022-07-26T10:09:39;13.48;;;6.45;;
65279;SDS011;51878;55.748;48.742;2022-07-26T10:12:14;9.18;;;5.97;;
65279;SDS011;51878;55.748;48.742;2022-07-26T10:19:57;12.23;;;6.20;;
65279;SDS011;51878;55.748;48.742;2022-07-26T10:27:48;7.28;;;5.90;;
65279;SDS011;51878;55.748;48.742;2022-07-26T10:32:58;13.65;;;7.25;;
65279;SDS011;51878;55.748;48.742;2022-07-26T10:40:59;9.80;;;6.70;;
65279;SDS011;51878;55.748;48.742;2022-07-26T10:43:32;12.65;;;6.47;;
65279;SDS011;51878;55.748;48.742;2022-07-26T10:51:25;7.53;;;6.63;;
65279;SDS011;51878;55.748;48.742;2022-07-26T10:53:58;9.93;;;6.80;;
65279;SDS011;51878;55.748;48.742;2022-07-26T10:56:27;13.75;;;6.57;;
65279;SDS011;51878;55.748;48.742;2022-07-26T10:58:58;12.63;;;6.70;;
65279;SDS011;51878;55.748;48.742;2022-07-26T11:01:35;10.80;;;6.65;;
65279;SDS011;51878;55.748;48.742;2022-07-26T11:04:05;9.90;;;6.78;;
65279;SDS011;51878;55.748;48.742;2022-07-26T11:06:43;35.50;;;11.00;;
65279;SDS011;51878;55.748;48.742;2022-07-26T11:09:11;25.67;;;10.52;;
65279;SDS011;51878;55.748;48.742;2022-07-26T11:11:38;10.90;;;3.95;;
65279;SDS011;51878;55.748;48.742;2022-07-26T11:14:12;6.18;;;3.35;;
65279;SDS011;51878;55.748;48.742;2022-07-26T11:16:42;7.88;;;3.80;;
65279;SDS011;51878;55.748;48.742;2022-07-26T11:19:29;7.43;;;3.83;;
65279;SDS011;51878;55.748;48.742;2022-07-26T11:21:57;10.32;;;5.90;;
65279;SDS011;51878;55.748;48.742;2022-07-26T11:24:26;13.73;;;7.30;;
65279;SDS011;51878;55.748;48.742;2022-07-26T11:26:54;11.02;;;6.55;;
65279;SDS011;51878;55.748;48.742;2022-07-26T11:29:25;13.25;;;7.85;;
65279;SDS011;51878;55.748;48.742;2022-07-26T11:32:05;8.02;;;6.63;;
65279;SDS011;51878;55.748;48.742;2022-07-26T11:34:42;7.45;;;5.60;;
65279;SDS011;51878;55.748;48.742;2022-07-26T11:37:11;8.10;;;5.53;;
65279;SDS011;51878;55.748;48.742;2022-07-26T11:39:39;10.13;;;5.97;;
65279;SDS011;51878;55.748;48.742;2022-07-26T11:42:09;16.10;;;6.60;;
65279;SDS011;51878;55.748;48.742;2022-07-26T11:44:42;11.30;;;6.10;;
65279;SDS011;51878;55.748;48.742;2022-07-26T11:47:12;9.13;;;5.05;;
65279;SDS011;51878;55.748;48.742;2022-07-26T11:49:46;6.57;;;5.75;;
65279;SDS011;51878;55.748;48.742;2022-07-26T11:52:29;7.30;;;6.43;;
65279;SDS011;51878;55.748;48.742;2022-07-26T11:54:59;8.30;;;6.72;;
65279;SDS011;51878;55.748;48.742;2022-07-26T11:57:27;8.15;;;6.75;;
65279;SDS011;51878;55.748;48.742;2022-07-26T11:59:56;9.05;;;6.03;;
65279;SDS011;51878;55.748;48.742;2022-07-26T12:02:25;5.78;;;4.18;;
65279;SDS011;51878;55.748;48.742;2022-07-26T12:10:42;6.32;;;4.32;;
65279;SDS011;51878;55.748;48.742;2022-07-26T12:13:12;6.43;;;4.50;;
65279;SDS011;51878;55.748;48.742;2022-07-26T12:18:20;8.60;;;5.95;;
65279;SDS011;51878;55.748;48.742;2022-07-26T12:29:04;7.32;;;5.70;;
65279;SDS011;51878;55.748;48.742;2022-07-26T12:32:00;6.50;;;5.38;;
65279;SDS011;51878;55.748;48.742;2022-07-26T12:34:38;7.13;;;5.55;;
65279;SDS011;51878;55.748;48.742;2022-07-26T12:37:08;8.55;;;5.80;;
65279;SDS011;51878;55.748;48.742;2022-07-26T12:39:38;7.90;;;6.15;;
65279;SDS011;51878;55.748;48.742;2022-07-26T12:42:23;7.50;;;5.80;;
65279;SDS011;51878;55.748;48.742;2022-07-26T12:44:58;7.55;;;4.85;;
65279;SDS011;51878;55.748;48.742;2022-07-26T12:47:26;5.75;;;5.00;;
65279;SDS011;51878;55.748;48.742;2022-07-26T12:49:54;8.70;;;5.40;;
65279;SDS011;51878;55.748;48.742;2022-07-26T12:52:21;6.57;;;5.15;;
65279;SDS011;51878;55.748;48.742;2022-07-26T12:54:50;7.88;;;5.68;;
65279;SDS011;51878;55.748;48.742;2022-07-26T12:57:18;6.30;;;5.30;;
65279;SDS011;51878;55.748;48.742;2022-07-26T12:59:47;6.22;;;5.30;;
65279;SDS011;51878;55.748;48.742;2022-07-26T13:02:16;8.02;;;5.70;;
65279;SDS011;51878;55.748;48.742;2022-07-26T13:04:44;6.95;;;5.53;;
65279;SDS011;51878;55.748;48.742;2022-07-26T13:07:12;8.38;;;5.88;;
65279;SDS011;51878;55.748;48.742;2022-07-26T13:09:41;8.43;;;5.78;;
65279;SDS011;51878;55.748;48.742;2022-07-26T13:12:09;8.05;;;5.68;;
65279;SDS011;51878;55.748;48.742;2022-07-26T13:14:37;8.85;;;5.85;;
65279;SDS011;51878;55.748;48.742;2022-07-26T13:17:05;10.63;;;5.68;;
65279;SDS011;51878;55.748;48.742;2022-07-26T13:19:34;7.88;;;5.50;;
65279;SDS011;51878;55.748;48.742;2022-07-26T13:22:02;7.93;;;4.70;;
65279;SDS011;51878;55.748;48.742;2022-07-26T13:24:33;6.60;;;4.45;;
65279;SDS011;51878;55.748;48.742;2022-07-26T13:27:02;9.48;;;4.80;;
65279;SDS011;51878;55.748;48.742;2022-07-26T13:29:30;5.45;;;4.68;;
65279;SDS011;51878;55.748;48.742;2022-07-26T13:31:57;5.65;;;4.13;;
65279;SDS011;51878;55.748;48.742;2022-07-26T13:34:25;5.50;;;4.40;;
65279;SDS011;51878;55.748;48.742;2022-07-26T13:36:59;6.57;;;4.47;;
65279;SDS011;51878;55.748;48.742;2022-07-26T13:39:26;7.45;;;4.72;;
65279;SDS011;51878;55.748;48.742;2022-07-26T13:41:54;6.70;;;4.68;;
65279;SDS011;51878;55.748;48.742;2022-07-26T13:44:22;8.07;;;4.78;;
65279;SDS011;51878;55.748;48.742;2022-07-26T13:46:49;6.03;;;4.30;;
65279;SDS011;51878;55.748;48.742;2022-07-26T13:49:16;6.82;;;4.15;;
65279;SDS011;51878;55.748;48.742;2022-07-26T13:51:44;7.13;;;4.70;;
65279;SDS011;51878;55.748;48.742;2022-07-26T13:54:33;5.45;;;4.70;;
65279;SDS011;51878;55.748;48.742;2022-07-26T13:57:02;6.32;;;4.88;;
65279;SDS011;51878;55.748;48.742;2022-07-26T13:59:30;6.03;;;4.80;;
65279;SDS011;51878;55.748;48.742;2022-07-26T14:01:58;4.95;;;3.50;;
65279;SDS011;51878;55.748;48.742;2022-07-26T14:04:25;4.95;;;4.40;;
65279;SDS011;51878;55.748;48.742;2022-07-26T14:06:54;9.35;;;4.00;;
65279;SDS011;51878;55.748;48.742;2022-07-26T14:09:21;4.75;;;3.85;;
65279;SDS011;51878;55.748;48.742;2022-07-26T14:11:48;5.65;;;3.70;;
65279;SDS011;51878;55.748;48.742;2022-07-26T14:14:16;4.95;;;3.75;;
65279;SDS011;51878;55.748;48.742;2022-07-26T14:16:43;4.50;;;3.55;;
65279;SDS011;51878;55.748;48.742;2022-07-26T14:19:11;7.55;;;4.00;;
65279;SDS011;51878;55.748;48.742;2022-07-26T14:21:39;5.13;;;3.92;;
65279;SDS011;51878;55.748;48.742;2022-07-26T14:24:12;5.38;;;4.20;;
65279;SDS011;51878;55.748;48.742;2022-07-26T14:26:40;4.45;;;3.60;;
65279;SDS011;51878;55.748;48.742;2022-07-26T14:29:07;6.22;;;4.32;;
65279;SDS011;51878;55.748;48.742;2022-07-26T14:31:34;8.32;;;4.35;;
65279;SDS011;51878;55.748;48.742;2022-07-26T14:34:19;8.38;;;4.57;;
65279;SDS011;51878;55.748;48.742;2022-07-26T14:36:47;10.48;;;4.65;;
65279;SDS011;51878;55.748;48.742;2022-07-26T14:39:14;7.75;;;4.78;;
65279;SDS011;51878;55.748;48.742;2022-07-26T14:41:41;9.27;;;4.63;;
65279;SDS011;51878;55.748;48.742;2022-07-26T14:44:08;9.30;;;4.25;;
65279;SDS011;51878;55.748;48.742;2022-07-26T14:46:36;8.15;;;4.45;;
65279;SDS011;51878;55.748;48.742;2022-07-26T14:49:03;7.00;;;4.65;;
65279;SDS011;51878;55.748;48.742;2022-07-26T14:51:30;5.68;;;4.15;;
65279;SDS011;51878;55.748;48.742;2022-07-26T14:53:58;7.50;;;3.90;;
65279;SDS011;51878;55.748;48.742;2022-07-26T14:56:25;5.38;;;3.90;;
65279;SDS011;51878;55.748;48.742;2022-07-26T14:58:52;4.82;;;3.60;;
65279;SDS011;51878;55.748;48.742;2022-07-26T15:01:19;7.05;;;3.97;;
65279;SDS011;51878;55.748;48.742;2022-07-26T15:03:47;6.57;;;3.95;;
65279;SDS011;51878;55.748;48.742;2022-07-26T15:06:18;6.50;;;3.63;;
65279;SDS011;51878;55.748;48.742;2022-07-26T15:08:46;9.20;;;4.38;;
65279;SDS011;51878;55.748;48.742;2022-07-26T15:11:13;6.22;;;5.30;;
65279;SDS011;51878;55.748;48.742;2022-07-26T15:13:41;8.13;;;5.55;;
65279;SDS011;51878;55.748;48.742;2022-07-26T15:16:08;11.68;;;5.85;;
65279;SDS011;51878;55.748;48.742;2022-07-26T15:18:35;9.77;;;6.00;;
65279;SDS011;51878;55.748;48.742;2022-07-26T15:21:02;9.35;;;5.97;;